sensor_id;sensor_type;location;lat;lon;timestamp;P1;durP1;ratioP1;P2;durP2;ratioP2
68192;SDS011;55012;47.562;18.414;2023-01-26T00:00:41;84.10;;;25.88;;
68192;SDS011;55012;47.562;18.414;2023-01-26T00:03:07;93.10;;;25.95;;
68192;SDS011;55012;47.562;18.414;2023-01-26T00:05:35;84.00;;;25.95;;
68192;SDS011;55012;47.562;18.414;2023-01-26T00:08:01;73.32;;;24.30;;
68192;SDS011;55012;47.562;18.414;2023-01-26T00:10:26;86.22;;;27.17;;
68192;SDS011;55012;47.562;18.414;2023-01-26T00:12:52;77.68;;;25.40;;
68192;SDS011;55012;47.562;18.414;2023-01-26T00:15:17;79.97;;;25.77;;
68192;SDS011;55012;47.562;18.414;2023-01-26T00:17:43;75.85;;;25.50;;
68192;SDS011;55012;47.562;18.414;2023-01-26T00:20:09;87.20;;;29.70;;
68192;SDS011;55012;47.562;18.414;2023-01-26T00:22:34;85.03;;;28.23;;
68192;SDS011;55012;47.562;18.414;2023-01-26T00:25:00;74.88;;;24.77;;
68192;SDS011;55012;47.562;18.414;2023-01-26T00:27:25;67.75;;;23.42;;
68192;SDS011;55012;47.562;18.414;2023-01-26T00:29:51;64.28;;;20.52;;
68192;SDS011;55012;47.562;18.414;2023-01-26T00:32:16;60.75;;;21.02;;
68192;SDS011;55012;47.562;18.414;2023-01-26T00:34:42;60.25;;;21.65;;
68192;SDS011;55012;47.562;18.414;2023-01-26T00:37:07;65.32;;;21.70;;
68192;SDS011;55012;47.562;18.414;2023-01-26T00:39:33;62.20;;;21.23;;
68192;SDS011;55012;47.562;18.414;2023-01-26T00:41:58;60.03;;;21.30;;
68192;SDS011;55012;47.562;18.414;2023-01-26T00:44:38;62.75;;;21.27;;
68192;SDS011;55012;47.562;18.414;2023-01-26T00:47:05;54.10;;;19.60;;
68192;SDS011;55012;47.562;18.414;2023-01-26T00:49:31;57.92;;;20.70;;
68192;SDS011;55012;47.562;18.414;2023-01-26T00:51:58;53.40;;;19.95;;
68192;SDS011;55012;47.562;18.414;2023-01-26T00:54:23;60.60;;;20.15;;
68192;SDS011;55012;47.562;18.414;2023-01-26T00:56:49;58.42;;;19.58;;
68192;SDS011;55012;47.562;18.414;2023-01-26T00:59:15;53.83;;;19.55;;
68192;SDS011;55012;47.562;18.414;2023-01-26T01:01:40;53.90;;;19.33;;
68192;SDS011;55012;47.562;18.414;2023-01-26T01:04:06;57.30;;;20.80;;
68192;SDS011;55012;47.562;18.414;2023-01-26T01:06:31;56.92;;;20.23;;
68192;SDS011;55012;47.562;18.414;2023-01-26T01:08:57;56.60;;;19.73;;
68192;SDS011;55012;47.562;18.414;2023-01-26T01:11:22;48.65;;;18.58;;
68192;SDS011;55012;47.562;18.414;2023-01-26T01:13:47;54.10;;;19.40;;
68192;SDS011;55012;47.562;18.414;2023-01-26T01:16:14;51.67;;;18.25;;
68192;SDS011;55012;47.562;18.414;2023-01-26T01:18:40;54.95;;;19.70;;
68192;SDS011;55012;47.562;18.414;2023-01-26T01:21:07;53.60;;;19.42;;
68192;SDS011;55012;47.562;18.414;2023-01-26T01:23:33;53.10;;;19.13;;
68192;SDS011;55012;47.562;18.414;2023-01-26T01:25:59;50.17;;;18.98;;
68192;SDS011;55012;47.562;18.414;2023-01-26T01:28:25;51.60;;;18.65;;
68192;SDS011;55012;47.562;18.414;2023-01-26T01:30:51;55.30;;;19.27;;
68192;SDS011;55012;47.562;18.414;2023-01-26T01:33:16;55.50;;;19.83;;
68192;SDS011;55012;47.562;18.414;2023-01-26T01:35:42;49.85;;;18.92;;
68192;SDS011;55012;47.562;18.414;2023-01-26T01:38:07;61.53;;;20.55;;
68192;SDS011;55012;47.562;18.414;2023-01-26T01:40:33;59.28;;;19.33;;
68192;SDS011;55012;47.562;18.414;2023-01-26T01:42:58;55.72;;;18.90;;
68192;SDS011;55012;47.562;18.414;2023-01-26T01:48:30;65.65;;;19.48;;
68192;SDS011;55012;47.562;18.414;2023-01-26T01:51:04;56.78;;;19.27;;
68192;SDS011;55012;47.562;18.414;2023-01-26T01:53:38;51.92;;;18.27;;
68192;SDS011;55012;47.562;18.414;2023-01-26T01:56:13;52.10;;;18.48;;
68192;SDS011;55012;47.562;18.414;2023-01-26T01:58:45;53.25;;;18.15;;
68192;SDS011;55012;47.562;18.414;2023-01-26T02:01:14;53.50;;;19.08;;
68192;SDS011;55012;47.562;18.414;2023-01-26T02:03:40;53.30;;;18.80;;
68192;SDS011;55012;47.562;18.414;2023-01-26T02:08:58;51.47;;;18.15;;
68192;SDS011;55012;47.562;18.414;2023-01-26T02:11:42;49.42;;;18.27;;
68192;SDS011;55012;47.562;18.414;2023-01-26T02:14:10;51.95;;;18.48;;
68192;SDS011;55012;47.562;18.414;2023-01-26T02:16:38;54.65;;;18.80;;
68192;SDS011;55012;47.562;18.414;2023-01-26T02:19:05;57.33;;;19.70;;
68192;SDS011;55012;47.562;18.414;2023-01-26T02:21:40;51.33;;;18.52;;
68192;SDS011;55012;47.562;18.414;2023-01-26T02:24:15;59.63;;;22.38;;
68192;SDS011;55012;47.562;18.414;2023-01-26T02:26:46;60.58;;;21.63;;
68192;SDS011;55012;47.562;18.414;2023-01-26T02:29:12;57.70;;;20.95;;
68192;SDS011;55012;47.562;18.414;2023-01-26T02:31:38;58.63;;;21.13;;
68192;SDS011;55012;47.562;18.414;2023-01-26T02:34:04;55.75;;;20.52;;
68192;SDS011;55012;47.562;18.414;2023-01-26T02:36:30;58.05;;;22.45;;
68192;SDS011;55012;47.562;18.414;2023-01-26T02:39:43;56.97;;;22.27;;
68192;SDS011;55012;47.562;18.414;2023-01-26T02:41:48;61.88;;;24.48;;
68192;SDS011;55012;47.562;18.414;2023-01-26T02:44:35;56.28;;;21.10;;
68192;SDS011;55012;47.562;18.414;2023-01-26T02:47:09;57.03;;;20.00;;
68192;SDS011;55012;47.562;18.414;2023-01-26T02:49:39;55.35;;;20.00;;
68192;SDS011;55012;47.562;18.414;2023-01-26T02:52:20;55.22;;;19.92;;
68192;SDS011;55012;47.562;18.414;2023-01-26T02:54:49;59.83;;;21.38;;
68192;SDS011;55012;47.562;18.414;2023-01-26T02:57:33;52.67;;;21.10;;
68192;SDS011;55012;47.562;18.414;2023-01-26T02:59:59;62.15;;;22.90;;
68192;SDS011;55012;47.562;18.414;2023-01-26T03:02:25;56.90;;;22.83;;
68192;SDS011;55012;47.562;18.414;2023-01-26T03:04:50;55.70;;;21.92;;
68192;SDS011;55012;47.562;18.414;2023-01-26T03:07:16;52.38;;;20.48;;
68192;SDS011;55012;47.562;18.414;2023-01-26T03:09:41;54.95;;;22.05;;
68192;SDS011;55012;47.562;18.414;2023-01-26T03:12:07;56.90;;;21.80;;
68192;SDS011;55012;47.562;18.414;2023-01-26T03:14:32;57.15;;;22.42;;
68192;SDS011;55012;47.562;18.414;2023-01-26T03:16:57;55.55;;;22.73;;
68192;SDS011;55012;47.562;18.414;2023-01-26T03:19:23;55.15;;;21.23;;
68192;SDS011;55012;47.562;18.414;2023-01-26T03:22:10;53.38;;;19.42;;
68192;SDS011;55012;47.562;18.414;2023-01-26T03:24:54;47.65;;;18.60;;
68192;SDS011;55012;47.562;18.414;2023-01-26T03:27:42;66.90;;;20.42;;
68192;SDS011;55012;47.562;18.414;2023-01-26T03:30:12;61.67;;;20.85;;
68192;SDS011;55012;47.562;18.414;2023-01-26T03:32:39;63.78;;;21.23;;
68192;SDS011;55012;47.562;18.414;2023-01-26T03:35:06;52.28;;;18.70;;
68192;SDS011;55012;47.562;18.414;2023-01-26T03:37:34;52.97;;;18.63;;
68192;SDS011;55012;47.562;18.414;2023-01-26T03:40:01;49.20;;;18.08;;
68192;SDS011;55012;47.562;18.414;2023-01-26T03:42:49;54.85;;;19.73;;
68192;SDS011;55012;47.562;18.414;2023-01-26T03:45:33;53.45;;;20.52;;
68192;SDS011;55012;47.562;18.414;2023-01-26T03:48:17;53.45;;;19.33;;
68192;SDS011;55012;47.562;18.414;2023-01-26T03:51:01;50.60;;;18.52;;
68192;SDS011;55012;47.562;18.414;2023-01-26T03:53:45;48.65;;;18.83;;
68192;SDS011;55012;47.562;18.414;2023-01-26T03:56:30;48.75;;;17.85;;
68192;SDS011;55012;47.562;18.414;2023-01-26T03:59:00;50.47;;;19.55;;
68192;SDS011;55012;47.562;18.414;2023-01-26T04:01:37;52.05;;;19.88;;
68192;SDS011;55012;47.562;18.414;2023-01-26T04:04:04;51.85;;;18.92;;
68192;SDS011;55012;47.562;18.414;2023-01-26T04:06:49;53.50;;;19.42;;
68192;SDS011;55012;47.562;18.414;2023-01-26T04:09:34;50.17;;;18.27;;
68192;SDS011;55012;47.562;18.414;2023-01-26T04:12:06;50.17;;;18.85;;
68192;SDS011;55012;47.562;18.414;2023-01-26T04:14:34;50.67;;;18.58;;
68192;SDS011;55012;47.562;18.414;2023-01-26T04:17:18;51.53;;;19.03;;
68192;SDS011;55012;47.562;18.414;2023-01-26T04:20:03;48.70;;;18.60;;
68192;SDS011;55012;47.562;18.414;2023-01-26T04:22:50;47.33;;;18.02;;
68192;SDS011;55012;47.562;18.414;2023-01-26T04:25:16;47.53;;;18.38;;
68192;SDS011;55012;47.562;18.414;2023-01-26T04:27:43;49.30;;;18.15;;
68192;SDS011;55012;47.562;18.414;2023-01-26T04:30:10;50.67;;;19.00;;
68192;SDS011;55012;47.562;18.414;2023-01-26T04:32:37;51.40;;;17.58;;
68192;SDS011;55012;47.562;18.414;2023-01-26T04:35:04;44.95;;;17.45;;
68192;SDS011;55012;47.562;18.414;2023-01-26T04:37:30;46.13;;;17.63;;
68192;SDS011;55012;47.562;18.414;2023-01-26T04:39:55;43.30;;;17.60;;
68192;SDS011;55012;47.562;18.414;2023-01-26T04:42:21;48.25;;;17.95;;
68192;SDS011;55012;47.562;18.414;2023-01-26T04:44:48;44.05;;;17.80;;
68192;SDS011;55012;47.562;18.414;2023-01-26T04:47:17;43.28;;;17.25;;
68192;SDS011;55012;47.562;18.414;2023-01-26T04:49:43;47.90;;;17.13;;
68192;SDS011;55012;47.562;18.414;2023-01-26T04:52:12;48.40;;;17.25;;
68192;SDS011;55012;47.562;18.414;2023-01-26T04:54:38;42.65;;;17.02;;
68192;SDS011;55012;47.562;18.414;2023-01-26T04:57:03;43.60;;;16.70;;
68192;SDS011;55012;47.562;18.414;2023-01-26T04:59:29;47.72;;;17.42;;
68192;SDS011;55012;47.562;18.414;2023-01-26T05:01:54;39.35;;;16.27;;
68192;SDS011;55012;47.562;18.414;2023-01-26T05:04:20;43.10;;;16.60;;
68192;SDS011;55012;47.562;18.414;2023-01-26T05:06:46;43.72;;;17.45;;
68192;SDS011;55012;47.562;18.414;2023-01-26T05:09:11;42.92;;;16.73;;
68192;SDS011;55012;47.562;18.414;2023-01-26T05:11:37;43.28;;;16.77;;
68192;SDS011;55012;47.562;18.414;2023-01-26T05:14:02;40.17;;;16.42;;
68192;SDS011;55012;47.562;18.414;2023-01-26T05:16:28;43.75;;;16.77;;
68192;SDS011;55012;47.562;18.414;2023-01-26T05:18:53;42.83;;;16.00;;
68192;SDS011;55012;47.562;18.414;2023-01-26T05:21:19;43.95;;;17.05;;
68192;SDS011;55012;47.562;18.414;2023-01-26T05:23:48;42.28;;;16.42;;
68192;SDS011;55012;47.562;18.414;2023-01-26T05:26:14;43.17;;;16.13;;
68192;SDS011;55012;47.562;18.414;2023-01-26T05:28:39;45.33;;;17.38;;
68192;SDS011;55012;47.562;18.414;2023-01-26T05:31:05;45.47;;;17.40;;
68192;SDS011;55012;47.562;18.414;2023-01-26T05:33:30;46.30;;;16.98;;
68192;SDS011;55012;47.562;18.414;2023-01-26T05:35:56;47.30;;;18.42;;
68192;SDS011;55012;47.562;18.414;2023-01-26T05:38:22;51.60;;;18.83;;
68192;SDS011;55012;47.562;18.414;2023-01-26T05:40:48;49.22;;;18.27;;
68192;SDS011;55012;47.562;18.414;2023-01-26T05:43:13;46.45;;;17.55;;
68192;SDS011;55012;47.562;18.414;2023-01-26T05:45:39;44.65;;;16.63;;
68192;SDS011;55012;47.562;18.414;2023-01-26T05:48:05;48.17;;;18.27;;
68192;SDS011;55012;47.562;18.414;2023-01-26T05:50:30;47.25;;;18.00;;
68192;SDS011;55012;47.562;18.414;2023-01-26T05:52:56;49.53;;;17.52;;
68192;SDS011;55012;47.562;18.414;2023-01-26T05:55:22;51.58;;;18.70;;
68192;SDS011;55012;47.562;18.414;2023-01-26T05:57:47;45.40;;;17.42;;
68192;SDS011;55012;47.562;18.414;2023-01-26T06:00:13;42.58;;;17.88;;
68192;SDS011;55012;47.562;18.414;2023-01-26T06:02:39;47.03;;;17.25;;
68192;SDS011;55012;47.562;18.414;2023-01-26T06:05:05;47.08;;;18.95;;
68192;SDS011;55012;47.562;18.414;2023-01-26T06:07:31;47.63;;;17.65;;
68192;SDS011;55012;47.562;18.414;2023-01-26T06:09:57;45.85;;;17.45;;
68192;SDS011;55012;47.562;18.414;2023-01-26T06:12:22;52.38;;;19.98;;
68192;SDS011;55012;47.562;18.414;2023-01-26T06:14:48;48.75;;;18.42;;
68192;SDS011;55012;47.562;18.414;2023-01-26T06:17:14;44.90;;;18.33;;
68192;SDS011;55012;47.562;18.414;2023-01-26T06:19:41;47.33;;;17.50;;
68192;SDS011;55012;47.562;18.414;2023-01-26T06:22:07;43.47;;;16.88;;
68192;SDS011;55012;47.562;18.414;2023-01-26T06:24:34;43.67;;;17.05;;
68192;SDS011;55012;47.562;18.414;2023-01-26T06:26:59;48.08;;;16.50;;
68192;SDS011;55012;47.562;18.414;2023-01-26T06:29:25;50.85;;;18.88;;
68192;SDS011;55012;47.562;18.414;2023-01-26T06:31:50;45.60;;;17.90;;
68192;SDS011;55012;47.562;18.414;2023-01-26T06:34:17;44.78;;;18.33;;
68192;SDS011;55012;47.562;18.414;2023-01-26T06:36:44;49.90;;;19.20;;
68192;SDS011;55012;47.562;18.414;2023-01-26T06:39:10;43.22;;;17.65;;
68192;SDS011;55012;47.562;18.414;2023-01-26T06:41:36;47.35;;;17.95;;
68192;SDS011;55012;47.562;18.414;2023-01-26T06:44:02;43.85;;;17.40;;
68192;SDS011;55012;47.562;18.414;2023-01-26T06:46:28;46.80;;;17.17;;
68192;SDS011;55012;47.562;18.414;2023-01-26T06:48:53;46.28;;;17.17;;
68192;SDS011;55012;47.562;18.414;2023-01-26T06:56:12;49.47;;;18.45;;
68192;SDS011;55012;47.562;18.414;2023-01-26T06:58:38;46.92;;;17.35;;
68192;SDS011;55012;47.562;18.414;2023-01-26T07:01:03;41.40;;;16.33;;
68192;SDS011;55012;47.562;18.414;2023-01-26T07:03:29;45.40;;;16.92;;
68192;SDS011;55012;47.562;18.414;2023-01-26T07:05:55;43.92;;;17.08;;
68192;SDS011;55012;47.562;18.414;2023-01-26T07:08:21;46.72;;;18.60;;
68192;SDS011;55012;47.562;18.414;2023-01-26T07:10:48;45.72;;;17.50;;
68192;SDS011;55012;47.562;18.414;2023-01-26T07:13:14;48.10;;;19.17;;
68192;SDS011;55012;47.562;18.414;2023-01-26T07:15:39;47.25;;;19.33;;
68192;SDS011;55012;47.562;18.414;2023-01-26T07:18:05;45.85;;;18.63;;
68192;SDS011;55012;47.562;18.414;2023-01-26T07:20:30;41.20;;;17.08;;
68192;SDS011;55012;47.562;18.414;2023-01-26T07:22:57;40.17;;;16.90;;
68192;SDS011;55012;47.562;18.414;2023-01-26T07:25:24;43.58;;;16.98;;
68192;SDS011;55012;47.562;18.414;2023-01-26T07:27:53;49.08;;;19.10;;
68192;SDS011;55012;47.562;18.414;2023-01-26T07:30:20;51.72;;;19.35;;
68192;SDS011;55012;47.562;18.414;2023-01-26T07:32:45;45.83;;;17.52;;
68192;SDS011;55012;47.562;18.414;2023-01-26T07:35:11;42.33;;;16.77;;
68192;SDS011;55012;47.562;18.414;2023-01-26T07:37:36;40.85;;;17.30;;
68192;SDS011;55012;47.562;18.414;2023-01-26T07:40:02;42.35;;;16.85;;
68192;SDS011;55012;47.562;18.414;2023-01-26T07:42:28;41.13;;;16.88;;
68192;SDS011;55012;47.562;18.414;2023-01-26T07:44:54;44.22;;;17.33;;
68192;SDS011;55012;47.562;18.414;2023-01-26T07:47:20;45.60;;;17.40;;
68192;SDS011;55012;47.562;18.414;2023-01-26T07:49:45;43.97;;;17.23;;
68192;SDS011;55012;47.562;18.414;2023-01-26T07:52:11;42.83;;;17.63;;
68192;SDS011;55012;47.562;18.414;2023-01-26T07:54:36;39.67;;;16.67;;
68192;SDS011;55012;47.562;18.414;2023-01-26T07:57:02;42.10;;;16.67;;
68192;SDS011;55012;47.562;18.414;2023-01-26T07:59:31;47.78;;;17.38;;
68192;SDS011;55012;47.562;18.414;2023-01-26T08:01:56;43.22;;;17.75;;
68192;SDS011;55012;47.562;18.414;2023-01-26T08:04:22;46.30;;;18.50;;
68192;SDS011;55012;47.562;18.414;2023-01-26T08:06:49;42.10;;;16.38;;
68192;SDS011;55012;47.562;18.414;2023-01-26T08:09:15;45.65;;;17.02;;
68192;SDS011;55012;47.562;18.414;2023-01-26T08:11:41;45.72;;;18.20;;
68192;SDS011;55012;47.562;18.414;2023-01-26T08:14:06;43.55;;;17.92;;
68192;SDS011;55012;47.562;18.414;2023-01-26T08:16:32;40.13;;;17.35;;
68192;SDS011;55012;47.562;18.414;2023-01-26T08:18:57;43.58;;;17.30;;
68192;SDS011;55012;47.562;18.414;2023-01-26T08:21:23;45.58;;;17.52;;
68192;SDS011;55012;47.562;18.414;2023-01-26T08:23:49;43.42;;;18.20;;
68192;SDS011;55012;47.562;18.414;2023-01-26T08:26:15;44.53;;;18.00;;
68192;SDS011;55012;47.562;18.414;2023-01-26T08:28:42;42.88;;;17.58;;
68192;SDS011;55012;47.562;18.414;2023-01-26T08:31:11;45.72;;;17.83;;
68192;SDS011;55012;47.562;18.414;2023-01-26T08:33:40;45.83;;;18.83;;
68192;SDS011;55012;47.562;18.414;2023-01-26T08:36:07;46.72;;;18.42;;
68192;SDS011;55012;47.562;18.414;2023-01-26T08:38:39;45.38;;;18.27;;
68192;SDS011;55012;47.562;18.414;2023-01-26T08:41:05;47.75;;;18.20;;
68192;SDS011;55012;47.562;18.414;2023-01-26T08:43:31;49.78;;;21.00;;
68192;SDS011;55012;47.562;18.414;2023-01-26T08:45:56;43.13;;;18.80;;
68192;SDS011;55012;47.562;18.414;2023-01-26T08:48:22;50.22;;;19.75;;
68192;SDS011;55012;47.562;18.414;2023-01-26T08:50:47;61.28;;;19.90;;
68192;SDS011;55012;47.562;18.414;2023-01-26T08:53:17;58.70;;;20.35;;
68192;SDS011;55012;47.562;18.414;2023-01-26T08:55:43;50.33;;;19.52;;
68192;SDS011;55012;47.562;18.414;2023-01-26T08:58:09;58.70;;;22.45;;
68192;SDS011;55012;47.562;18.414;2023-01-26T09:00:34;56.97;;;20.15;;
68192;SDS011;55012;47.562;18.414;2023-01-26T09:03:01;54.17;;;19.90;;
68192;SDS011;55012;47.562;18.414;2023-01-26T09:05:32;47.78;;;18.45;;
68192;SDS011;55012;47.562;18.414;2023-01-26T09:07:59;45.08;;;18.80;;
68192;SDS011;55012;47.562;18.414;2023-01-26T09:10:25;52.22;;;19.55;;
68192;SDS011;55012;47.562;18.414;2023-01-26T09:12:51;60.85;;;21.08;;
68192;SDS011;55012;47.562;18.414;2023-01-26T09:15:16;56.10;;;20.08;;
68192;SDS011;55012;47.562;18.414;2023-01-26T09:17:42;52.50;;;19.15;;
68192;SDS011;55012;47.562;18.414;2023-01-26T09:20:08;56.03;;;21.02;;
68192;SDS011;55012;47.562;18.414;2023-01-26T09:22:35;60.78;;;20.80;;
68192;SDS011;55012;47.562;18.414;2023-01-26T09:25:01;52.50;;;19.38;;
68192;SDS011;55012;47.562;18.414;2023-01-26T09:27:27;47.88;;;17.73;;
68192;SDS011;55012;47.562;18.414;2023-01-26T09:29:52;51.72;;;18.98;;
68192;SDS011;55012;47.562;18.414;2023-01-26T09:32:19;44.55;;;19.05;;
68192;SDS011;55012;47.562;18.414;2023-01-26T09:34:44;42.40;;;17.88;;
68192;SDS011;55012;47.562;18.414;2023-01-26T09:37:10;36.95;;;16.90;;
68192;SDS011;55012;47.562;18.414;2023-01-26T09:39:35;40.60;;;17.27;;
68192;SDS011;55012;47.562;18.414;2023-01-26T09:47:51;39.20;;;17.20;;
68192;SDS011;55012;47.562;18.414;2023-01-26T09:50:31;38.35;;;16.45;;
68192;SDS011;55012;47.562;18.414;2023-01-26T09:53:05;36.90;;;15.75;;
68192;SDS011;55012;47.562;18.414;2023-01-26T09:55:39;37.88;;;16.17;;
68192;SDS011;55012;47.562;18.414;2023-01-26T09:58:13;38.28;;;16.98;;
68192;SDS011;55012;47.562;18.414;2023-01-26T10:00:51;41.15;;;17.17;;
68192;SDS011;55012;47.562;18.414;2023-01-26T10:03:42;41.13;;;17.80;;
68192;SDS011;55012;47.562;18.414;2023-01-26T10:08:55;45.78;;;17.80;;
68192;SDS011;55012;47.562;18.414;2023-01-26T10:11:25;54.33;;;18.15;;
68192;SDS011;55012;47.562;18.414;2023-01-26T10:13:58;43.65;;;17.70;;
68192;SDS011;55012;47.562;18.414;2023-01-26T10:16:29;44.95;;;18.73;;
68192;SDS011;55012;47.562;18.414;2023-01-26T10:19:15;47.88;;;19.42;;
68192;SDS011;55012;47.562;18.414;2023-01-26T10:21:46;41.15;;;17.40;;
68192;SDS011;55012;47.562;18.414;2023-01-26T10:24:16;41.83;;;17.90;;
68192;SDS011;55012;47.562;18.414;2023-01-26T10:26:46;40.20;;;17.77;;
68192;SDS011;55012;47.562;18.414;2023-01-26T10:29:12;38.28;;;17.25;;
68192;SDS011;55012;47.562;18.414;2023-01-26T10:31:41;33.55;;;15.02;;
68192;SDS011;55012;47.562;18.414;2023-01-26T10:34:12;34.58;;;15.20;;
68192;SDS011;55012;47.562;18.414;2023-01-26T10:36:38;33.95;;;14.98;;
68192;SDS011;55012;47.562;18.414;2023-01-26T10:39:07;35.67;;;15.88;;
68192;SDS011;55012;47.562;18.414;2023-01-26T10:41:34;36.05;;;15.70;;
68192;SDS011;55012;47.562;18.414;2023-01-26T10:44:01;36.15;;;15.93;;
68192;SDS011;55012;47.562;18.414;2023-01-26T10:46:47;38.22;;;16.13;;
68192;SDS011;55012;47.562;18.414;2023-01-26T10:49:40;34.55;;;15.57;;
68192;SDS011;55012;47.562;18.414;2023-01-26T10:54:41;35.63;;;15.60;;
68192;SDS011;55012;47.562;18.414;2023-01-26T10:57:27;33.13;;;13.70;;
68192;SDS011;55012;47.562;18.414;2023-01-26T10:59:55;31.33;;;14.88;;
68192;SDS011;55012;47.562;18.414;2023-01-26T11:02:24;41.03;;;15.82;;
68192;SDS011;55012;47.562;18.414;2023-01-26T11:07:39;35.97;;;15.48;;
68192;SDS011;55012;47.562;18.414;2023-01-26T11:12:49;35.50;;;15.15;;
68192;SDS011;55012;47.562;18.414;2023-01-26T11:15:20;38.75;;;16.73;;
68192;SDS011;55012;47.562;18.414;2023-01-26T11:20:40;33.67;;;15.30;;
68192;SDS011;55012;47.562;18.414;2023-01-26T11:31:38;36.35;;;16.40;;
68192;SDS011;55012;47.562;18.414;2023-01-26T11:34:20;37.53;;;16.48;;
68192;SDS011;55012;47.562;18.414;2023-01-26T11:45:20;38.03;;;16.00;;
68192;SDS011;55012;47.562;18.414;2023-01-26T11:47:46;39.70;;;16.25;;
68192;SDS011;55012;47.562;18.414;2023-01-26T11:58:38;38.95;;;16.60;;
68192;SDS011;55012;47.562;18.414;2023-01-26T12:01:25;38.83;;;17.00;;
68192;SDS011;55012;47.562;18.414;2023-01-26T12:03:54;36.90;;;15.60;;
68192;SDS011;55012;47.562;18.414;2023-01-26T12:09:06;39.17;;;15.52;;
68192;SDS011;55012;47.562;18.414;2023-01-26T12:11:43;41.22;;;16.02;;
68192;SDS011;55012;47.562;18.414;2023-01-26T12:22:57;37.90;;;15.98;;
68192;SDS011;55012;47.562;18.414;2023-01-26T12:30:56;36.33;;;15.57;;
68192;SDS011;55012;47.562;18.414;2023-01-26T12:33:23;39.15;;;15.55;;
68192;SDS011;55012;47.562;18.414;2023-01-26T12:39:23;37.53;;;15.05;;
68192;SDS011;55012;47.562;18.414;2023-01-26T12:41:44;37.22;;;15.13;;
68192;SDS011;55012;47.562;18.414;2023-01-26T12:45:07;34.67;;;14.88;;
68192;SDS011;55012;47.562;18.414;2023-01-26T12:52:52;34.00;;;15.10;;
68192;SDS011;55012;47.562;18.414;2023-01-26T12:55:23;32.63;;;15.18;;
68192;SDS011;55012;47.562;18.414;2023-01-26T12:57:57;36.25;;;15.60;;
68192;SDS011;55012;47.562;18.414;2023-01-26T13:00:30;33.75;;;15.50;;
68192;SDS011;55012;47.562;18.414;2023-01-26T13:03:00;34.53;;;15.95;;
68192;SDS011;55012;47.562;18.414;2023-01-26T13:05:34;36.10;;;15.50;;
68192;SDS011;55012;47.562;18.414;2023-01-26T13:11:02;33.53;;;15.18;;
68192;SDS011;55012;47.562;18.414;2023-01-26T13:18:55;43.72;;;16.52;;
68192;SDS011;55012;47.562;18.414;2023-01-26T13:21:31;48.35;;;16.60;;
68192;SDS011;55012;47.562;18.414;2023-01-26T13:26:44;43.60;;;17.63;;
68192;SDS011;55012;47.562;18.414;2023-01-26T13:31:48;31.45;;;13.15;;
68192;SDS011;55012;47.562;18.414;2023-01-26T13:34:14;27.70;;;12.82;;
68192;SDS011;55012;47.562;18.414;2023-01-26T13:36:45;29.35;;;12.88;;
68192;SDS011;55012;47.562;18.414;2023-01-26T13:39:18;28.45;;;13.23;;
68192;SDS011;55012;47.562;18.414;2023-01-26T13:41:46;29.10;;;12.75;;
68192;SDS011;55012;47.562;18.414;2023-01-26T13:44:14;28.20;;;12.35;;
68192;SDS011;55012;47.562;18.414;2023-01-26T13:46:49;28.92;;;13.30;;
68192;SDS011;55012;47.562;18.414;2023-01-26T13:49:41;28.45;;;13.00;;
68192;SDS011;55012;47.562;18.414;2023-01-26T13:52:25;25.40;;;11.88;;
68192;SDS011;55012;47.562;18.414;2023-01-26T13:54:52;23.23;;;11.57;;
68192;SDS011;55012;47.562;18.414;2023-01-26T14:00:00;24.70;;;11.40;;
68192;SDS011;55012;47.562;18.414;2023-01-26T14:02:32;25.48;;;12.25;;
68192;SDS011;55012;47.562;18.414;2023-01-26T14:04:59;24.30;;;11.48;;
68192;SDS011;55012;47.562;18.414;2023-01-26T14:07:27;26.45;;;11.65;;
68192;SDS011;55012;47.562;18.414;2023-01-26T14:10:04;26.90;;;12.50;;
68192;SDS011;55012;47.562;18.414;2023-01-26T14:12:35;29.27;;;12.07;;
68192;SDS011;55012;47.562;18.414;2023-01-26T14:15:18;26.17;;;11.98;;
68192;SDS011;55012;47.562;18.414;2023-01-26T14:17:49;24.48;;;11.68;;
68192;SDS011;55012;47.562;18.414;2023-01-26T14:20:23;28.55;;;12.70;;
68192;SDS011;55012;47.562;18.414;2023-01-26T14:23:09;27.85;;;11.95;;
68192;SDS011;55012;47.562;18.414;2023-01-26T14:25:54;27.40;;;12.10;;
68192;SDS011;55012;47.562;18.414;2023-01-26T14:28:24;25.98;;;12.07;;
68192;SDS011;55012;47.562;18.414;2023-01-26T14:31:04;27.95;;;12.85;;
68192;SDS011;55012;47.562;18.414;2023-01-26T14:33:37;26.02;;;12.15;;
68192;SDS011;55012;47.562;18.414;2023-01-26T14:36:04;25.88;;;12.27;;
68192;SDS011;55012;47.562;18.414;2023-01-26T14:38:40;29.50;;;12.13;;
68192;SDS011;55012;47.562;18.414;2023-01-26T14:41:14;26.45;;;12.25;;
68192;SDS011;55012;47.562;18.414;2023-01-26T14:43:42;25.85;;;12.50;;
68192;SDS011;55012;47.562;18.414;2023-01-26T14:46:20;26.85;;;12.52;;
68192;SDS011;55012;47.562;18.414;2023-01-26T14:49:03;27.92;;;12.27;;
68192;SDS011;55012;47.562;18.414;2023-01-26T14:51:37;26.17;;;12.37;;
68192;SDS011;55012;47.562;18.414;2023-01-26T14:54:04;29.05;;;13.23;;
68192;SDS011;55012;47.562;18.414;2023-01-26T14:56:39;28.52;;;12.55;;
68192;SDS011;55012;47.562;18.414;2023-01-26T14:59:05;26.35;;;12.60;;
68192;SDS011;55012;47.562;18.414;2023-01-26T15:01:33;29.48;;;12.45;;
68192;SDS011;55012;47.562;18.414;2023-01-26T15:04:09;30.02;;;12.80;;
68192;SDS011;55012;47.562;18.414;2023-01-26T15:09:21;24.48;;;11.85;;
68192;SDS011;55012;47.562;18.414;2023-01-26T15:11:53;22.17;;;11.30;;
68192;SDS011;55012;47.562;18.414;2023-01-26T15:20:00;27.33;;;11.23;;
68192;SDS011;55012;47.562;18.414;2023-01-26T15:22:26;25.42;;;11.18;;
68192;SDS011;55012;47.562;18.414;2023-01-26T15:27:32;23.92;;;11.57;;
68192;SDS011;55012;47.562;18.414;2023-01-26T15:29:59;23.15;;;11.25;;
68192;SDS011;55012;47.562;18.414;2023-01-26T15:32:29;26.75;;;12.10;;
68192;SDS011;55012;47.562;18.414;2023-01-26T15:35:06;25.98;;;11.57;;
68192;SDS011;55012;47.562;18.414;2023-01-26T15:37:45;33.30;;;12.73;;
68192;SDS011;55012;47.562;18.414;2023-01-26T15:40:11;29.27;;;13.55;;
68192;SDS011;55012;47.562;18.414;2023-01-26T15:42:37;28.85;;;11.85;;
68192;SDS011;55012;47.562;18.414;2023-01-26T15:45:05;31.05;;;12.95;;
68192;SDS011;55012;47.562;18.414;2023-01-26T15:47:44;30.05;;;14.15;;
68192;SDS011;55012;47.562;18.414;2023-01-26T15:50:09;34.25;;;15.52;;
68192;SDS011;55012;47.562;18.414;2023-01-26T15:52:35;36.85;;;16.38;;
68192;SDS011;55012;47.562;18.414;2023-01-26T15:55:00;35.67;;;16.25;;
68192;SDS011;55012;47.562;18.414;2023-01-26T15:57:26;38.17;;;16.42;;
68192;SDS011;55012;47.562;18.414;2023-01-26T15:59:51;37.60;;;15.30;;
68192;SDS011;55012;47.562;18.414;2023-01-26T16:02:18;33.70;;;14.98;;
68192;SDS011;55012;47.562;18.414;2023-01-26T16:04:45;28.10;;;13.00;;
68192;SDS011;55012;47.562;18.414;2023-01-26T16:07:14;27.98;;;12.75;;
68192;SDS011;55012;47.562;18.414;2023-01-26T16:09:41;29.63;;;13.48;;